Terminal Aerodrome Forecast
Issued by NWS

Current Version | Previous Version | Text Only | Print | Product List | Glossary Off
Versions: 1 2 3 4 5 6 7 8 9 10 11 12 13 14 15 16 17 18 19 20 21 22

000
FTUS41 KILN 271700
TAFLUK
TAF
KLUK 271739Z 2718/2818 21012G20KT P6SM -SHRA BKN035 OVC250
     FM272000 25014G24KT P6SM OVC025
     FM280000 29009KT P6SM SCT040
     FM280800 29008KT P6SM SCT015
     FM281500 31011KT P6SM BKN025=

USA.gov is the U.S. government's official web portal to all federal, state and local government web resources and services.